METAR Data
IDs: Format: Raw Decoded Include TAF

Data at: 1822 UTC 06 Jul 2020

KMNV 061815Z AUTO VRB04KT 10SM FEW055 SCT065 31/18 A3003 RMK A01
KMNV 061755Z AUTO VRB06KT 110V170 10SM CLR 32/17 A3003 RMK A01
KMNV 061735Z AUTO 09007KT 040V110 10SM CLR 32/18 A3004 RMK A01
KMNV 061715Z AUTO 09008KT 060V120 10SM CLR 31/18 A3005 RMK A01
KMNV 061645Z AUTO VRB03KT 10SM CLR 30/19 A3006 RMK A01
KMNV 061635Z AUTO VRB05KT 10SM CLR 30/20 A3006 RMK A01
KMNV 061615Z AUTO 13004KT 10SM CLR 30/20 A3007 RMK A01
KMNV 061555Z AUTO 00000G11KT 10SM CLR 30/19 A3007 RMK A01
KMNV 061535Z AUTO VRB04KT 10SM CLR 29/20 A3006 RMK A01
KMNV 061515Z AUTO 05005KT 10SM CLR 29/21 A3007 RMK A01
KMNV 061455Z AUTO 00000KT 10SM CLR 28/21 A3007 RMK A01
KMNV 061435Z AUTO 00000KT 10SM CLR 27/21 A3007 RMK A01
KMNV 061415Z AUTO VRB04KT 10SM CLR 27/22 A3006 RMK A01
KMNV 061355Z AUTO 01004KT 10SM CLR 26/22 A3006 RMK A01
KMNV 061335Z AUTO VRB03KT 10SM CLR 26/21 A3006 RMK A01
KMNV 061315Z AUTO 03003KT 10SM CLR 25/22 A3006 RMK A01
KMNV 061255Z AUTO 05003KT 10SM CLR 25/21 A3006 RMK A01
KMNV 061235Z AUTO 00000KT 10SM CLR 24/21 A3005 RMK A01
KMNV 061215Z AUTO 00000KT 10SM CLR 23/22 A3005 RMK A01
KMNV 061155Z AUTO 00000KT 10SM CLR 21/21 A3004 RMK A01
KMNV 061135Z AUTO 00000KT 7SM CLR 20/20 A3004 RMK A01
KMNV 061115Z AUTO 00000KT 5SM BR CLR 20/20 A3004 RMK A01
KMNV 061055Z AUTO 00000KT 5SM BR CLR 20/20 A3003 RMK A01
KMNV 061035Z AUTO 00000KT 2SM BR CLR 19/19 A3003 RMK A01 VIS 1 1/4V4
KMNV 061015Z AUTO 00000KT 8SM CLR 20/20 A3002 RMK A01
KMNV 060955Z AUTO 00000KT 6SM BR 20/20 A3002 RMK A01
KMNV 060935Z AUTO 00000KT 7SM CLR 20/20 A3001 RMK A01
KMNV 060915Z AUTO 00000KT 7SM CLR 20/20 A2999 RMK A01
KMNV 060855Z AUTO 00000KT 9SM CLR 20/20 A2999 RMK A01
KMNV 060835Z AUTO 00000KT 10SM CLR 20/20 A2998 RMK A01
KMNV 060815Z AUTO 00000KT 10SM CLR 20/20 A2998 RMK A01
KMNV 060755Z AUTO 00000KT 10SM CLR 20/20 A2998 RMK A01
KMNV 060735Z AUTO 00000KT 10SM CLR 21/21 A2997 RMK A01
KMNV 060715Z AUTO 00000KT 10SM CLR 21/20 A2998 RMK A01
KMNV 060655Z AUTO 00000KT 10SM CLR 21/21 A2999 RMK A01
KMNV 060635Z AUTO 00000KT 10SM CLR 21/21 A2999 RMK A01
KMNV 060615Z AUTO 00000KT 10SM FEW065 22/21 A3000 RMK A01
KMNV 060555Z AUTO 00000KT 10SM 22/21 A3000 RMK A01
KMNV 060535Z AUTO 00000KT 10SM 22/21 A3000 RMK A01
KMNV 060515Z AUTO 04003KT 10SM CLR 22/21 A3000 RMK A01
KMNV 060455Z AUTO 00000KT 10SM CLR 22/21 A3001 RMK A01
KMNV 060435Z AUTO 00000KT 10SM SCT070 22/21 A3001 RMK A01
KMNV 060415Z AUTO 00000KT 10SM BKN075 23/22 A3000 RMK A01
KMNV 060355Z AUTO 00000KT 10SM FEW070 23/21 A3001 RMK A01
KMNV 060335Z AUTO 00000KT 10SM FEW055 23/21 A3001 RMK A01
KMNV 060315Z AUTO 00000KT 10SM FEW055 23/22 A3001 RMK A01
KMNV 060255Z AUTO 00000KT 10SM FEW080 24/22 A3001 RMK A01
KMNV 060235Z AUTO 00000KT 10SM BKN060 BKN080 24/22 A3000 RMK A01
KMNV 060215Z AUTO 00000KT 10SM OVC060 24/21 A3000 RMK A01
KMNV 060155Z AUTO 29006KT 10SM BKN060 OVC085 24/22 A3000 RMK A01
KMNV 060135Z AUTO 00000KT 10SM BKN060 BKN070 BKN085 24/22 A2999 RMK A01
KMNV 060115Z AUTO 00000KT 10SM BKN060 24/22 A2999 RMK A01
KMNV 060055Z AUTO 00000KT 10SM CLR 25/21 A2998 RMK A01
KMNV 060035Z AUTO 00000KT 10SM CLR 25/22 A2998 RMK A01
KMNV 060015Z AUTO 00000KT 10SM CLR 26/21 A2998 RMK A01
KMNV 052355Z AUTO 05004KT 10SM CLR 26/21 A2997 RMK A01
KMNV 052335Z AUTO 00000KT 10SM CLR 26/21 A2996 RMK A01
KMNV 052315Z AUTO 00000KT 10SM CLR 26/21 A2995 RMK A01
KMNV 052255Z AUTO 00000KT 10SM CLR 26/21 A2994 RMK A01
KMNV 052235Z AUTO 00000KT 10SM CLR 27/21 A2994 RMK A01
KMNV 052215Z AUTO 00000KT 10SM CLR 26/20 A2993 RMK A01
KMNV 052155Z AUTO 00000KT 10SM CLR 27/20 A2995 RMK A01
KMNV 052135Z AUTO 10008KT 10SM CLR 27/21 A2994 RMK A01
KMNV 052115Z AUTO 01007KT 10SM CLR 28/20 A2994 RMK A01
KMNV 052055Z AUTO 01007KT 10SM CLR 28/20 A2995 RMK A01
KMNV 052035Z AUTO 04008KT 10SM CLR 29/19 A2996 RMK A01
KMNV 052015Z AUTO 08014G23KT 10SM CLR 30/20 A2996 RMK A01
KMNV 051955Z AUTO 09004KT 10SM CLR 33/19 A2996 RMK A01
KMNV 051935Z AUTO 00000KT 10SM CLR 32/19 A2996 RMK A01
KMNV 051915Z AUTO 00000KT 10SM CLR 32/22 A2996 RMK A01
KMNV 051855Z AUTO 10004KT 10SM SCT050 SCT060 32/22 A2997 RMK A01
KMNV 051835Z AUTO 00000KT 10SM SCT050 SCT060 32/20 A2997 RMK A01
KMNV 051815Z AUTO 00000KT 10SM FEW050 33/20 A2997 RMK A01
KMNV 051755Z AUTO VRB04KT 10SM FEW049 33/21 A2997 RMK A01
KMNV 051735Z AUTO 00000KT 10SM FEW048 32/21 A2998 RMK A01
KMNV 051715Z AUTO VRB03KT 10SM CLR 32/21 A2999 RMK A01
KMNV 051655Z AUTO 00000KT 10SM FEW046 32/20 A3000 RMK A01
KMNV 051635Z AUTO 21004KT 10SM SCT046 31/21 A3001 RMK A01
KMNV 051615Z AUTO 00000KT 10SM CLR 31/22 A3001 RMK A01
KMNV 051555Z AUTO VRB05KT 10SM CLR 31/23 A3001 RMK A01
KMNV 051535Z AUTO 00000KT 10SM CLR 30/23 A3002 RMK A01
KMNV 051515Z AUTO 00000KT 10SM CLR 29/22 A3001 RMK A01
KMNV 051455Z AUTO 00000KT 10SM CLR 29/22 A3001 RMK A01
KMNV 051435Z AUTO 00000KT 10SM FEW120 28/22 A3001 RMK A01
KMNV 051415Z AUTO 00000KT 10SM FEW120 28/22 A3001 RMK A01
KMNV 051355Z AUTO 00000KT 10SM CLR 27/23 A3001 RMK A01
KMNV 051335Z AUTO 00000KT 10SM CLR 27/22 A3001 RMK A01
KMNV 051315Z AUTO 00000KT 10SM CLR 26/23 A3001 RMK A01
KMNV 051255Z AUTO 00000KT 10SM CLR 25/23 A3000 RMK A01
KMNV 051235Z AUTO 00000KT 8SM CLR 24/23 A3000 RMK A01
KMNV 051215Z AUTO 00000KT 3SM BR CLR 23/23 A2999 RMK A01
KMNV 051155Z AUTO 00000KT 2SM BR CLR 23/23 A2999 RMK A01
KMNV 051135Z AUTO 00000KT 2SM BR CLR 22/22 A2998 RMK A01
KMNV 051115Z AUTO 00000KT 1SM BR CLR 22/22 A2998 RMK A01
KMNV 051055Z AUTO 00000KT 1 1/2SM BR CLR 22/22 A2998 RMK A01
KMNV 051035Z AUTO 00000KT 1 1/4SM BR CLR 22/22 A2997 RMK A01
KMNV 051015Z AUTO 00000KT 2 1/2SM BR CLR 22/22 A2997 RMK A01
KMNV 050955Z AUTO 00000KT 2 1/2SM BR 22/22 A2996 RMK A01
KMNV 050935Z AUTO 00000KT 3SM BR CLR 22/22 A2996 RMK A01
KMNV 050915Z AUTO 00000KT 1 3/4SM BR SCT055 SCT110 22/22 A2995 RMK A01
KMNV 050855Z AUTO 00000KT 2 1/2SM BR CLR 23/23 A2995 RMK A01
KMNV 050835Z AUTO 00000KT 3SM BR 23/23 A2994 RMK A01
KMNV 050815Z AUTO 00000KT 6SM BR FEW055 23/23 A2994 RMK A01
KMNV 050755Z AUTO 00000KT 4SM BR FEW055 23/23 A2995 RMK A01
KMNV 050735Z AUTO 00000KT 7SM FEW050 24/23 A2995 RMK A01
KMNV 050715Z AUTO 00000KT 4SM BR FEW090 SCT110 24/23 A2995 RMK A01
KMNV 050655Z AUTO 00000KT 7SM 24/23 A2995 RMK A01
KMNV 050635Z AUTO 00000KT 6SM BR SCT055 BKN085 24/24 A2996 RMK A01